Paradise Hill, Canada
Current Conditions -  °F | °C
As of 9:00 PM on Wednesday 22 Oct 2014 (Local Time) from CYLL Reporting Station
Clear Clear  
Wind Chill: 37°   Ceiling: Unl
Heat Index: 43°   Visibility: 15mi
Dew Point: 32°   Wind: 9mph
Humidity: 66%   Direction: 150°SSE
Pressure: 29.68"   Gusts: NA
Location:  53.53°N, 109.45°W
Report Text: CYLL 230300Z 15008KT 15SM SKC 06/00 A2968 RMK LAST STFD OBS/NEXT 231300 UTC SLP076
Loading
Personal Weather Stations






























Interactive Weather Map
Tropical Storm Tracking
New forecast layout! Learn more

10-Day Weather Forecast

Advertisements
Track Severe Weather on mobile